Time;durP1;ratioP1;P1;durP2;ratioP2;P2;SDS_P1;SDS_P2;PMS_P1;PMS_P2;Temp;Humidity;BMP_temperature;BMP_pressure;BME280_temperature;BME280_humidity;BME280_pressure;Samples;Min_cycle;Max_cycle;Signal;HPM_P1;HPM_P2
2023/11/19 00:01:34;;;;;;;;;;;;;;;4.15;100.00;100825.47;5041307;28;20031;-55
2023/11/19 00:04:02;;;;;;;;;;;;;;;4.13;100.00;100824.63;5050759;28;20012;-56
2023/11/19 00:06:29;;;;;;;;;;;;;;;4.11;100.00;100808.22;5047416;28;19925;-55
2023/11/19 00:08:56;;;;;;;;;;;;;;;4.12;100.00;100802.94;5039893;28;19929;-52
2023/11/19 00:11:24;;;;;;;;;;;;;;;4.13;100.00;100783.78;5046938;28;20015;-54
2023/11/19 00:13:51;;;;;;;;;;;;;;;4.11;100.00;100788.22;5036423;28;19991;-51
2023/11/19 00:16:18;;;;;;;;;;;;;;;4.10;100.00;100775.22;5042863;28;19994;-53
2023/11/19 00:18:45;;;;;;;;;;;;;;;4.06;100.00;100777.94;5050109;28;20106;-51
2023/11/19 00:21:12;;;;;;;;;;;;;;;4.07;100.00;100778.78;5044407;28;19963;-54
2023/11/19 00:23:39;;;;;;;;;;;;;;;4.09;100.00;100769.16;5038059;28;20059;-49
2023/11/19 00:26:06;;;;;;;;;;;;;;;4.04;100.00;100758.88;5050578;28;19925;-50
2023/11/19 00:28:34;;;;;;;;;;;;;;;4.04;100.00;100753.66;5039916;28;20361;-56
2023/11/19 00:31:01;;;;;;;;;;;;;;;4.05;100.00;100762.31;5045913;28;20087;-50
2023/11/19 00:33:29;;;;;;;;;;;;;;;4.01;100.00;100755.53;5042908;28;20032;-52
2023/11/19 00:35:56;;;;;;;;;;;;;;;4.00;100.00;100741.63;5049205;28;20297;-53
2023/11/19 00:38:23;;;;;;;;;;;;;;;4.03;100.00;100738.94;5044725;28;20447;-52
2023/11/19 00:40:50;;;;;;;;;;;;;;;4.04;100.00;100742.38;5046514;28;20012;-52
2023/11/19 00:43:17;;;;;;;;;;;;;;;4.06;100.00;100727.59;5042508;28;19959;-54
2023/11/19 00:45:45;;;;;;;;;;;;;;;4.03;100.00;100715.50;5047726;28;20004;-57
2023/11/19 00:48:12;;;;;;;;;;;;;;;4.06;100.00;100710.19;5039489;28;20004;-52
2023/11/19 00:50:43;;;;;;;;;;;;;;;4.04;100.00;100701.56;5047864;28;19984;-53
2023/11/19 00:53:11;;;;;;;;;;;;;;;4.07;100.00;100692.81;5041465;28;19933;-54
2023/11/19 00:55:38;;;;;;;;;;;;;;;4.06;100.00;100688.50;5046622;28;20123;-48
2023/11/19 00:58:13;;;;;;;;;;;;;;;4.07;100.00;100685.00;5045551;28;19976;-51
2023/11/19 01:00:40;;;;;;;;;;;;;;;4.11;100.00;100685.75;5039204;28;20304;-54
2023/11/19 01:03:07;;;;;;;;;;;;;;;4.10;100.00;100676.22;5045682;28;20039;-56
2023/11/19 01:05:34;;;;;;;;;;;;;;;4.10;100.00;100660.59;5058553;28;19960;-52
2023/11/19 01:08:01;;;;;;;;;;;;;;;4.11;100.00;100654.50;5048348;28;19971;-52
2023/11/19 01:10:28;;;;;;;;;;;;;;;4.12;100.00;100650.97;5046918;28;20686;-53
2023/11/19 01:12:55;;;;;;;;;;;;;;;4.12;100.00;100653.59;5047984;28;20276;-56
2023/11/19 01:15:22;;;;;;;;;;;;;;;4.13;100.00;100634.44;5052971;28;19925;-54
2023/11/19 01:17:50;;;;;;;;;;;;;;;4.13;100.00;100608.38;5045808;28;19929;-55
2023/11/19 01:20:20;;;;;;;;;;;;;;;4.11;100.00;100598.03;5049778;28;20299;-52
2023/11/19 01:22:48;;;;;;;;;;;;;;;4.12;100.00;100601.47;5042514;28;20028;-55
2023/11/19 01:25:16;;;;;;;;;;;;;;;4.15;100.00;100598.78;5045038;28;19924;-56
2023/11/19 01:27:43;;;;;;;;;;;;;;;4.14;100.00;100573.63;5043370;28;20386;-51
2023/11/19 01:30:12;;;;;;;;;;;;;;;4.15;100.00;100596.19;5054653;28;20384;-51
2023/11/19 01:32:40;;;;;;;;;;;;;;;4.15;100.00;100591.81;5028090;28;19979;-52
2023/11/19 01:35:10;;;;;;;;;;;;;;;4.18;100.00;100589.09;5048155;28;20141;-54
2023/11/19 01:37:38;;;;;;;;;;;;;;;4.14;100.00;100584.03;5052627;28;20407;-51
2023/11/19 01:40:06;;;;;;;;;;;;;;;4.16;99.69;100579.63;5038894;28;19925;-51
2023/11/19 01:42:39;;;;;;;;;;;;;;;4.17;99.83;100571.75;5042407;28;19929;-54
2023/11/19 01:45:08;;;;;;;;;;;;;;;4.19;99.45;100553.50;5043266;28;19964;-55
2023/11/19 01:47:36;;;;;;;;;;;;;;;4.18;100.00;100547.41;5047916;28;19925;-54
2023/11/19 01:50:06;;;;;;;;;;;;;;;4.18;99.43;100531.78;5052396;28;20148;-54
2023/11/19 01:52:36;;;;;;;;;;;;;;;4.18;99.43;100515.28;5027591;28;20372;-55
2023/11/19 01:55:04;;;;;;;;;;;;;;;4.17;98.90;100513.59;5040253;28;19944;-54
2023/11/19 01:57:31;;;;;;;;;;;;;;;4.20;99.49;100508.28;5039077;28;19964;-55
2023/11/19 01:59:58;;;;;;;;;;;;;;;4.19;99.58;100494.41;5046262;28;19930;-55
2023/11/19 02:02:26;;;;;;;;;;;;;;;4.23;99.06;100501.22;5047842;28;20062;-56
2023/11/19 02:04:53;;;;;;;;;;;;;;;4.22;100.00;100496.03;5032416;28;20387;-57
2023/11/19 02:07:21;;;;;;;;;;;;;;;4.23;100.00;100489.91;5021480;28;19932;-56
2023/11/19 02:09:48;;;;;;;;;;;;;;;4.22;100.00;100473.44;5037316;28;20012;-49
2023/11/19 02:12:15;;;;;;;;;;;;;;;4.22;100.00;100467.38;5048468;28;19999;-51
2023/11/19 02:14:42;;;;;;;;;;;;;;;4.20;100.00;100446.59;5033599;28;20412;-53
2023/11/19 02:17:24;;;;;;;;;;;;;;;4.22;100.00;100423.94;5044847;28;20028;-57
2023/11/19 02:19:51;;;;;;;;;;;;;;;4.20;100.00;100423.16;5042575;28;19924;-53
2023/11/19 02:22:18;;;;;;;;;;;;;;;4.19;100.00;100418.00;5046612;28;19972;-52
2023/11/19 02:24:47;;;;;;;;;;;;;;;4.17;100.00;100415.44;5044412;28;20020;-53
2023/11/19 02:27:16;;;;;;;;;;;;;;;4.18;100.00;100416.28;5019989;28;20027;-52
2023/11/19 02:29:43;;;;;;;;;;;;;;;4.19;100.00;100416.25;5035398;28;19929;-52
2023/11/19 02:32:13;;;;;;;;;;;;;;;4.22;100.00;100405.69;5026005;28;19964;-56
2023/11/19 02:34:40;;;;;;;;;;;;;;;4.23;100.00;100409.16;5049478;28;20019;-54
2023/11/19 02:37:08;;;;;;;;;;;;;;;4.24;100.00;100390.88;5055924;28;20028;-54
2023/11/19 02:39:35;;;;;;;;;;;;;;;4.25;100.00;100396.94;5045220;28;20407;-48
2023/11/19 02:42:02;;;;;;;;;;;;;;;4.26;100.00;100383.84;5044423;28;20002;-55
2023/11/19 02:44:30;;;;;;;;;;;;;;;4.27;100.00;100363.84;5048861;28;19925;-53
2023/11/19 02:46:59;;;;;;;;;;;;;;;4.26;100.00;100360.38;5054171;28;19959;-50
2023/11/19 02:49:26;;;;;;;;;;;;;;;4.24;100.00;100370.03;5055199;28;20579;-52
2023/11/19 02:51:53;;;;;;;;;;;;;;;4.29;100.00;100373.31;5040617;28;20344;-49
2023/11/19 02:54:26;;;;;;;;;;;;;;;4.29;100.00;100352.47;5048148;28;20332;-52
2023/11/19 02:56:59;;;;;;;;;;;;;;;4.29;100.00;100344.66;5042969;28;19956;-51
2023/11/19 02:59:38;;;;;;;;;;;;;;;4.30;100.00;100335.91;5051937;28;19965;-51
2023/11/19 03:02:06;;;;;;;;;;;;;;;4.34;100.00;100317.56;5030132;28;19956;-51
2023/11/19 03:04:34;;;;;;;;;;;;;;;4.35;100.00;100308.84;5046848;28;20024;-49
2023/11/19 03:07:02;;;;;;;;;;;;;;;4.34;100.00;100312.34;5050361;28;20385;-52
2023/11/19 03:09:29;;;;;;;;;;;;;;;4.32;100.00;100297.63;5041610;28;20323;-51
2023/11/19 03:11:56;;;;;;;;;;;;;;;4.37;100.00;100304.41;5050364;28;20555;-53
2023/11/19 03:14:23;;;;;;;;;;;;;;;4.36;100.00;100305.31;5041830;28;20470;-57
2023/11/19 03:16:50;;;;;;;;;;;;;;;4.37;100.00;100310.50;5049711;28;20011;-56
2023/11/19 03:19:17;;;;;;;;;;;;;;;4.35;100.00;100309.69;5046948;28;19951;-56
2023/11/19 03:21:48;;;;;;;;;;;;;;;4.37;100.00;100310.50;5041597;28;19925;-48
2023/11/19 03:24:15;;;;;;;;;;;;;;;4.41;100.00;100313.81;5048074;28;19933;-53
2023/11/19 03:26:42;;;;;;;;;;;;;;;4.46;100.00;100324.94;5044856;28;20444;-56
2023/11/19 03:29:09;;;;;;;;;;;;;;;4.42;100.00;100315.53;5041408;28;20011;-51
2023/11/19 03:31:38;;;;;;;;;;;;;;;4.47;100.00;100318.78;5047447;28;19956;-52
2023/11/19 03:34:05;;;;;;;;;;;;;;;4.43;100.00;100319.81;5042226;28;19925;-55
2023/11/19 03:36:32;;;;;;;;;;;;;;;4.43;100.00;100294.59;5041488;28;19987;-55
2023/11/19 03:38:59;;;;;;;;;;;;;;;4.45;100.00;100295.38;5048680;28;20438;-54
2023/11/19 03:41:26;;;;;;;;;;;;;;;4.44;100.00;100287.63;5045398;28;19971;-50
2023/11/19 03:43:53;;;;;;;;;;;;;;;4.42;100.00;100252.97;5043143;28;20336;-53
2023/11/19 03:46:20;;;;;;;;;;;;;;;4.34;100.00;100250.66;5044270;28;19975;-52
2023/11/19 03:48:48;;;;;;;;;;;;;;;4.27;100.00;100255.25;5049117;28;20002;-50
2023/11/19 03:51:15;;;;;;;;;;;;;;;4.26;100.00;100243.13;5046850;28;20329;-54
2023/11/19 03:53:43;;;;;;;;;;;;;;;4.26;100.00;100245.75;5045687;28;19987;-52
2023/11/19 03:56:11;;;;;;;;;;;;;;;4.21;100.00;100249.44;5039941;28;20024;-52
2023/11/19 03:58:38;;;;;;;;;;;;;;;4.19;100.00;100233.03;5043715;28;20299;-53
2023/11/19 04:01:05;;;;;;;;;;;;;;;4.12;100.00;100211.56;5043516;28;20426;-51
2023/11/19 04:03:33;;;;;;;;;;;;;;;4.13;100.00;100207.19;5043133;28;20001;-53
2023/11/19 04:06:00;;;;;;;;;;;;;;;4.11;100.00;100190.78;5044657;28;20015;-53
2023/11/19 04:08:27;;;;;;;;;;;;;;;4.09;100.00;100184.78;5054410;28;19960;-52
2023/11/19 04:10:54;;;;;;;;;;;;;;;4.07;100.00;100171.81;5041718;28;20241;-53
2023/11/19 04:13:22;;;;;;;;;;;;;;;4.07;100.00;100172.66;5051601;28;20210;-52
2023/11/19 04:15:49;;;;;;;;;;;;;;;4.05;100.00;100158.88;5050645;28;20026;-50
2023/11/19 04:18:16;;;;;;;;;;;;;;;4.03;100.00;100160.66;5051725;28;20027;-53
2023/11/19 04:20:43;;;;;;;;;;;;;;;4.05;100.00;100156.28;5045281;28;19968;-53
2023/11/19 04:23:11;;;;;;;;;;;;;;;4.04;100.00;100140.69;5045473;28;19956;-52
2023/11/19 04:25:38;;;;;;;;;;;;;;;4.04;100.00;100136.31;5050151;28;19968;-57
2023/11/19 04:28:05;;;;;;;;;;;;;;;4.00;100.00;100136.50;5049887;28;20417;-51
2023/11/19 04:30:32;;;;;;;;;;;;;;;3.99;100.00;100135.66;5048950;28;19994;-50
2023/11/19 04:32:59;;;;;;;;;;;;;;;4.01;100.00;100133.84;5047725;28;19968;-50
2023/11/19 04:35:26;;;;;;;;;;;;;;;4.00;100.00;100128.69;5043699;28;20396;-52
2023/11/19 04:37:53;;;;;;;;;;;;;;;3.99;100.00;100130.44;5049536;28;19975;-51
2023/11/19 04:40:22;;;;;;;;;;;;;;;4.01;100.00;100133.00;5049918;28;20175;-55
2023/11/19 04:42:49;;;;;;;;;;;;;;;3.99;100.00;100122.63;5051974;28;20011;-51
2023/11/19 04:45:16;;;;;;;;;;;;;;;4.00;100.00;100128.69;5045579;28;20379;-52
2023/11/19 04:47:44;;;;;;;;;;;;;;;3.98;100.00;100127.91;5049230;28;20424;-52
2023/11/19 04:50:11;;;;;;;;;;;;;;;3.97;100.00;100136.63;5049141;28;19936;-55
2023/11/19 04:52:42;;;;;;;;;;;;;;;3.98;100.00;100118.34;5051057;28;19930;-49
2023/11/19 04:55:11;;;;;;;;;;;;;;;3.98;100.00;100123.56;5048765;28;20003;-53
2023/11/19 04:57:38;;;;;;;;;;;;;;;3.99;100.00;100114.81;5051489;28;20144;-51
2023/11/19 05:00:07;;;;;;;;;;;;;;;4.03;100.00;100108.59;5047260;28;20426;-50
2023/11/19 05:02:43;;;;;;;;;;;;;;;3.98;100.00;100102.72;5047041;28;19975;-51
2023/11/19 05:05:11;;;;;;;;;;;;;;;3.95;100.00;100096.78;5041621;28;19933;-52
2023/11/19 05:07:38;;;;;;;;;;;;;;;3.93;100.00;100070.81;5026318;28;19948;-51
2023/11/19 05:10:05;;;;;;;;;;;;;;;3.91;100.00;100075.22;5048112;28;19968;-54
2023/11/19 05:12:32;;;;;;;;;;;;;;;3.91;100.00;100075.22;5045293;28;19971;-51
2023/11/19 05:15:00;;;;;;;;;;;;;;;3.91;100.00;100056.97;5053329;28;20406;-50
2023/11/19 05:17:27;;;;;;;;;;;;;;;3.94;100.00;100043.84;5049571;28;19991;-49
2023/11/19 05:19:54;;;;;;;;;;;;;;;3.91;100.00;100043.13;5044962;28;19964;-51
2023/11/19 05:22:21;;;;;;;;;;;;;;;3.90;100.00;100029.25;5045537;28;20024;-51
2023/11/19 05:24:49;;;;;;;;;;;;;;;3.90;100.00;100011.03;5048910;28;19933;-50
2023/11/19 05:27:16;;;;;;;;;;;;;;;3.90;100.00;100026.66;5048003;28;19935;-54
2023/11/19 05:29:43;;;;;;;;;;;;;;;3.88;100.00;100014.63;5048604;28;19964;-54
2023/11/19 05:32:11;;;;;;;;;;;;;;;3.89;100.00;100016.31;5047882;28;20014;-50
2023/11/19 05:34:38;;;;;;;;;;;;;;;3.85;100.00;100023.38;5047594;28;20016;-54
2023/11/19 05:37:18;;;;;;;;;;;;;;;3.86;100.00;100016.44;5049421;28;20030;-56
2023/11/19 05:39:45;;;;;;;;;;;;;;;3.86;100.00;100006.84;5052992;28;20016;-52
2023/11/19 05:42:12;;;;;;;;;;;;;;;3.86;100.00;100013.81;5049591;28;20015;-52
2023/11/19 05:44:39;;;;;;;;;;;;;;;3.85;100.00;100015.59;5049877;28;19964;-51
2023/11/19 05:47:07;;;;;;;;;;;;;;;3.83;100.00;99993.09;5045801;28;20343;-54
2023/11/19 05:49:35;;;;;;;;;;;;;;;3.84;100.00;99990.47;5046935;28;19929;-50
2023/11/19 05:52:03;;;;;;;;;;;;;;;3.82;100.00;99976.63;5045901;28;20031;-49
2023/11/19 05:54:31;;;;;;;;;;;;;;;3.80;100.00;99965.47;5046678;28;20387;-55
2023/11/19 05:56:58;;;;;;;;;;;;;;;3.85;100.00;99979.13;5051909;28;19960;-52
2023/11/19 05:59:25;;;;;;;;;;;;;;;3.87;100.00;99977.28;5042214;28;20439;-52
2023/11/19 06:01:52;;;;;;;;;;;;;;;3.81;100.00;99956.72;5033168;28;20056;-54
2023/11/19 06:04:19;;;;;;;;;;;;;;;3.84;100.00;99950.56;5043310;28;20028;-53
2023/11/19 06:06:46;;;;;;;;;;;;;;;3.86;100.00;99951.34;5043420;28;19936;-52
2023/11/19 06:09:14;;;;;;;;;;;;;;;3.82;100.00;99950.59;5041683;28;19933;-49
2023/11/19 06:11:41;;;;;;;;;;;;;;;3.86;100.00;99953.94;5045974;28;19982;-55
2023/11/19 06:14:08;;;;;;;;;;;;;;;3.85;100.00;99965.28;5043882;28;20004;-52
2023/11/19 06:16:36;;;;;;;;;;;;;;;3.91;100.00;99957.19;5046477;28;19941;-53
2023/11/19 06:19:04;;;;;;;;;;;;;;;3.91;100.00;99954.59;5052414;28;20028;-54
2023/11/19 06:21:31;;;;;;;;;;;;;;;3.91;100.00;99937.19;5051005;28;19960;-50
2023/11/19 06:23:59;;;;;;;;;;;;;;;3.94;100.00;99941.44;5052535;28;20375;-52
2023/11/19 06:26:26;;;;;;;;;;;;;;;3.96;100.00;99930.06;5049938;28;19933;-52
2023/11/19 06:28:54;;;;;;;;;;;;;;;3.92;100.00;99918.09;5050117;28;19949;-56
2023/11/19 06:31:21;;;;;;;;;;;;;;;3.98;100.00;99922.19;5048948;28;20032;-57
2023/11/19 06:33:48;;;;;;;;;;;;;;;3.99;100.00;99929.06;5051455;28;19967;-56
2023/11/19 06:36:18;;;;;;;;;;;;;;;4.00;100.00;99915.97;5052087;28;21091;-55
2023/11/19 06:38:45;;;;;;;;;;;;;;;4.02;100.00;99911.56;5051526;28;20015;-49
2023/11/19 06:41:12;;;;;;;;;;;;;;;4.05;100.00;99889.72;5054532;28;19925;-49
2023/11/19 06:43:39;;;;;;;;;;;;;;;4.02;100.00;99898.53;5050253;28;19928;-52
2023/11/19 06:46:17;;;;;;;;;;;;;;;4.03;100.00;99905.44;5047615;28;19963;-54
2023/11/19 06:48:45;;;;;;;;;;;;;;;4.05;100.00;99894.94;5057078;28;19956;-51
2023/11/19 06:51:12;;;;;;;;;;;;;;;4.10;100.00;99892.13;5048953;28;20035;-52
2023/11/19 06:53:41;;;;;;;;;;;;;;;4.12;100.00;99903.34;5052721;28;19970;-55
2023/11/19 06:56:21;;;;;;;;;;;;;;;4.12;100.00;99887.72;5052015;28;19924;-55
2023/11/19 06:58:48;;;;;;;;;;;;;;;4.10;100.00;99898.22;5054649;28;20150;-53
2023/11/19 07:01:18;;;;;;;;;;;;;;;4.13;100.00;99900.66;5052942;28;20000;-53
2023/11/19 07:03:46;;;;;;;;;;;;;;;4.17;100.00;99904.81;5056666;28;19964;-52
2023/11/19 07:06:13;;;;;;;;;;;;;;;4.19;100.00;99889.16;5039543;28;20019;-51
2023/11/19 07:08:44;;;;;;;;;;;;;;;4.19;100.00;99879.56;5054947;28;20039;-49
2023/11/19 07:11:13;;;;;;;;;;;;;;;4.25;100.00;99888.88;5047112;28;21045;-52
2023/11/19 07:13:41;;;;;;;;;;;;;;;4.24;100.00;99884.56;5054717;28;19925;-53
2023/11/19 07:16:09;;;;;;;;;;;;;;;4.20;100.00;99881.25;5043466;28;19956;-54
2023/11/19 07:18:37;;;;;;;;;;;;;;;4.25;100.00;99900.13;5049209;28;19964;-52
2023/11/19 07:21:04;;;;;;;;;;;;;;;4.30;100.00;99907.75;5052882;28;19924;-57
2023/11/19 07:23:33;;;;;;;;;;;;;;;4.28;100.00;99904.38;5052498;28;19929;-52
2023/11/19 07:26:00;;;;;;;;;;;;;;;4.31;100.00;99899.84;5052510;28;20595;-50
2023/11/19 07:28:28;;;;;;;;;;;;;;;4.32;100.00;99898.06;5052576;28;20407;-54
2023/11/19 07:30:58;;;;;;;;;;;;;;;4.36;100.00;99890.97;5051738;28;19982;-50
2023/11/19 07:33:25;;;;;;;;;;;;;;;4.35;100.00;99882.31;5047944;28;19925;-54
2023/11/19 07:35:52;;;;;;;;;;;;;;;4.37;100.00;99884.84;5052189;28;20023;-57
2023/11/19 07:38:19;;;;;;;;;;;;;;;4.39;100.00;99876.06;5050019;28;20007;-51
2023/11/19 07:40:47;;;;;;;;;;;;;;;4.41;100.00;99881.19;5052758;28;20007;-53
2023/11/19 07:43:17;;;;;;;;;;;;;;;4.45;100.00;99878.38;5050331;28;20036;-56
2023/11/19 07:45:45;;;;;;;;;;;;;;;4.47;100.00;99897.41;5056878;28;19970;-55
2023/11/19 07:48:13;;;;;;;;;;;;;;;4.49;100.00;99892.13;5033389;28;19948;-50
2023/11/19 07:50:43;;;;;;;;;;;;;;;4.50;100.00;99899.88;5051674;28;19935;-60
2023/11/19 07:53:12;;;;;;;;;;;;;;;4.53;100.00;99885.84;5048538;28;20012;-53
2023/11/19 07:55:39;;;;;;;;;;;;;;;4.55;100.00;99869.22;5051013;28;20486;-52
2023/11/19 07:58:08;;;;;;;;;;;;;;;4.56;100.00;99878.75;5054569;28;19932;-53
2023/11/19 08:00:36;;;;;;;;;;;;;;;4.60;100.00;99882.06;5046844;28;20020;-55
2023/11/19 08:03:04;;;;;;;;;;;;;;;4.63;100.00;99874.06;5055866;28;19982;-54
2023/11/19 08:05:31;;;;;;;;;;;;;;;4.62;100.00;99888.03;5051589;28;20124;-51
2023/11/19 08:07:58;;;;;;;;;;;;;;;4.66;100.00;99883.53;5048394;28;20313;-53
2023/11/19 08:10:26;;;;;;;;;;;;;;;4.66;100.00;99878.31;5050494;28;19951;-52
2023/11/19 08:12:53;;;;;;;;;;;;;;;4.71;100.00;99873.72;5050589;28;20450;-51
2023/11/19 08:15:20;;;;;;;;;;;;;;;4.75;100.00;99883.09;5047197;28;19971;-57
2023/11/19 08:17:51;;;;;;;;;;;;;;;4.81;100.00;99885.41;5054394;28;19924;-53
2023/11/19 08:20:18;;;;;;;;;;;;;;;4.84;100.00;99872.22;5052971;28;19987;-54
2023/11/19 08:22:45;;;;;;;;;;;;;;;4.91;100.00;99880.59;5049836;28;19925;-55
2023/11/19 08:25:12;;;;;;;;;;;;;;;4.99;100.00;99862.81;5050494;28;20481;-55
2023/11/19 08:27:40;;;;;;;;;;;;;;;5.04;100.00;99866.94;5045996;28;20023;-54
2023/11/19 08:30:07;;;;;;;;;;;;;;;5.07;100.00;99864.16;5057275;28;19924;-55
2023/11/19 08:32:34;;;;;;;;;;;;;;;5.16;100.00;99873.28;5029631;28;19929;-54
2023/11/19 08:35:01;;;;;;;;;;;;;;;5.20;100.00;99846.13;5057522;28;19925;-51
2023/11/19 08:37:28;;;;;;;;;;;;;;;5.22;100.00;99840.81;5047246;28;20070;-53
2023/11/19 08:39:55;;;;;;;;;;;;;;;5.28;100.00;99846.59;5054303;28;19924;-52
2023/11/19 08:42:22;;;;;;;;;;;;;;;5.33;100.00;99839.38;5051778;28;20301;-55
2023/11/19 08:44:50;;;;;;;;;;;;;;;5.39;100.00;99840.00;5055998;28;19924;-53
2023/11/19 08:47:20;;;;;;;;;;;;;;;5.38;100.00;99847.00;5053015;28;20479;-53
2023/11/19 08:49:47;;;;;;;;;;;;;;;5.45;100.00;99845.78;5049315;28;19932;-55
2023/11/19 08:52:30;;;;;;;;;;;;;;;5.55;100.00;99846.16;5045674;28;19985;-56
2023/11/19 08:55:01;;;;;;;;;;;;;;;5.72;100.00;99817.41;5051521;28;19925;-53
2023/11/19 08:57:30;;;;;;;;;;;;;;;5.90;100.00;99835.63;5056218;28;20206;-53
2023/11/19 08:59:57;;;;;;;;;;;;;;;5.85;100.00;99835.88;5048783;28;19982;-53
2023/11/19 09:02:24;;;;;;;;;;;;;;;5.89;100.00;99839.19;5047512;28;19956;-49
2023/11/19 09:04:51;;;;;;;;;;;;;;;5.86;100.00;99834.97;5057187;28;20028;-57
2023/11/19 09:07:21;;;;;;;;;;;;;;;5.88;100.00;99840.13;5053150;28;19967;-51
2023/11/19 09:09:48;;;;;;;;;;;;;;;5.96;100.00;99830.13;5051191;28;20032;-54
2023/11/19 09:12:15;;;;;;;;;;;;;;;5.99;100.00;99833.44;5049746;28;20019;-52
2023/11/19 09:14:42;;;;;;;;;;;;;;;6.05;100.00;99840.94;5051553;28;19968;-49
2023/11/19 09:17:10;;;;;;;;;;;;;;;6.04;100.00;99846.25;5033214;28;20439;-55
2023/11/19 09:19:37;;;;;;;;;;;;;;;6.12;100.00;99848.44;5047653;28;20403;-54
2023/11/19 09:22:04;;;;;;;;;;;;;;;6.19;100.00;99855.91;5048086;28;20024;-53
2023/11/19 09:24:31;;;;;;;;;;;;;;;6.32;100.00;99830.78;5048207;28;19967;-55
2023/11/19 09:26:58;;;;;;;;;;;;;;;6.32;100.00;99851.69;5055494;28;20436;-49
2023/11/19 09:29:25;;;;;;;;;;;;;;;6.38;100.00;99854.91;5058711;28;19979;-55
2023/11/19 09:31:52;;;;;;;;;;;;;;;6.40;100.00;99840.84;5040955;28;19925;-53
2023/11/19 09:34:20;;;;;;;;;;;;;;;6.60;100.00;99835.34;5053677;28;19967;-53
2023/11/19 09:36:47;;;;;;;;;;;;;;;6.80;100.00;99838.66;5057559;28;19933;-56
2023/11/19 09:39:17;;;;;;;;;;;;;;;6.90;100.00;99839.81;5049529;28;19980;-51
2023/11/19 09:41:47;;;;;;;;;;;;;;;7.09;100.00;99834.38;5053927;28;19930;-51
2023/11/19 09:44:18;;;;;;;;;;;;;;;7.19;100.00;99830.28;5054052;28;20464;-52
2023/11/19 09:46:46;;;;;;;;;;;;;;;7.23;100.00;99844.91;5053494;28;19986;-56
2023/11/19 09:49:13;;;;;;;;;;;;;;;7.38;100.00;99810.91;5055594;28;19929;-53
2023/11/19 09:51:40;;;;;;;;;;;;;;;7.75;100.00;99826.13;5050728;28;19968;-56
2023/11/19 09:54:07;;;;;;;;;;;;;;;8.09;100.00;99829.31;5053985;28;20378;-50
2023/11/19 09:56:34;;;;;;;;;;;;;;;8.48;100.00;99823.41;5055171;28;20598;-53
2023/11/19 09:59:01;;;;;;;;;;;;;;;8.76;100.00;99825.13;5027711;28;19925;-53
2023/11/19 10:01:31;;;;;;;;;;;;;;;8.83;100.00;99825.59;5046087;28;19992;-55
2023/11/19 10:03:59;;;;;;;;;;;;;;;9.06;100.00;99819.69;5044204;28;19929;-55
2023/11/19 10:06:26;;;;;;;;;;;;;;;9.00;100.00;99824.47;5038341;28;20555;-50
2023/11/19 10:08:55;;;;;;;;;;;;;;;8.87;100.00;99827.03;5036957;28;19968;-53
2023/11/19 10:11:22;;;;;;;;;;;;;;;8.56;100.00;99823.78;5042774;28;19928;-53
2023/11/19 10:13:49;;;;;;;;;;;;;;;8.55;100.00;99816.81;5055757;28;20020;-54
2023/11/19 10:16:17;;;;;;;;;;;;;;;8.63;100.00;99817.19;5056178;28;20351;-56
2023/11/19 10:18:48;;;;;;;;;;;;;;;8.68;100.00;99811.66;5054585;28;20016;-50
2023/11/19 10:21:17;;;;;;;;;;;;;;;8.84;100.00;99817.59;5055518;28;19939;-55
2023/11/19 10:23:48;;;;;;;;;;;;;;;9.10;100.00;99804.56;5046391;28;20004;-54
2023/11/19 10:26:16;;;;;;;;;;;;;;;9.24;100.00;99816.78;5047389;28;19933;-55
2023/11/19 10:28:45;;;;;;;;;;;;;;;9.18;100.00;99819.81;5044276;28;20423;-54
2023/11/19 10:31:13;;;;;;;;;;;;;;;9.02;100.00;99818.19;5053212;28;19937;-56
2023/11/19 10:33:40;;;;;;;;;;;;;;;9.04;100.00;99813.66;5053112;28;20024;-54
2023/11/19 10:36:07;;;;;;;;;;;;;;;9.30;100.00;99797.97;5059002;28;19924;-55
2023/11/19 10:38:35;;;;;;;;;;;;;;;9.79;100.00;99782.34;5053394;28;19978;-53
2023/11/19 10:41:02;;;;;;;;;;;;;;;10.23;100.00;99793.34;5033879;28;20008;-56
2023/11/19 10:43:29;;;;;;;;;;;;;;;10.38;100.00;99793.13;5049764;28;19986;-50
2023/11/19 10:46:08;;;;;;;;;;;;;;;10.55;100.00;99784.03;5051344;28;19963;-52
2023/11/19 10:48:35;;;;;;;;;;;;;;;10.61;100.00;99788.84;5050202;28;19972;-54
2023/11/19 10:51:03;;;;;;;;;;;;;;;10.47;100.00;99777.63;5052659;28;20350;-53
2023/11/19 10:53:30;;;;;;;;;;;;;;;10.65;100.00;99773.66;5043380;28;20438;-54
2023/11/19 10:55:58;;;;;;;;;;;;;;;10.58;100.00;99769.78;5040095;28;19960;-55
2023/11/19 10:58:25;;;;;;;;;;;;;;;10.55;100.00;99773.50;5042005;28;20438;-54
2023/11/19 11:00:53;;;;;;;;;;;;;;;10.64;100.00;99775.47;5026337;28;19932;-52
2023/11/19 11:03:22;;;;;;;;;;;;;;;10.85;100.00;99780.09;5052711;28;19971;-54
2023/11/19 11:05:50;;;;;;;;;;;;;;;10.68;100.00;99778.72;5052797;28;19925;-50
2023/11/19 11:08:17;;;;;;;;;;;;;;;10.42;100.00;99766.59;5033064;28;19971;-55
2023/11/19 11:10:54;;;;;;;;;;;;;;;10.44;100.00;99778.69;5048455;28;19974;-55
2023/11/19 11:13:24;;;;;;;;;;;;;;;10.49;100.00;99771.31;5043694;28;19970;-55
2023/11/19 11:15:52;;;;;;;;;;;;;;;10.65;100.00;99773.66;5053924;28;20355;-54
2023/11/19 11:18:19;;;;;;;;;;;;;;;11.43;100.00;99767.84;5035014;28;20001;-52
2023/11/19 11:20:46;;;;;;;;;;;;;;;11.81;100.00;99770.19;5050580;28;20039;-51
2023/11/19 11:23:28;;;;;;;;;;;;;;;12.56;100.00;99764.28;5037399;28;19968;-54
2023/11/19 11:26:16;;;;;;;;;;;;;;;12.38;100.00;99777.16;5054739;28;19957;-56
2023/11/19 11:29:03;;;;;;;;;;;;;;;12.11;100.00;99772.25;5042680;28;20023;-54
2023/11/19 11:32:02;;;;;;;;;;;;;;;11.94;100.00;99775.38;5034614;28;20341;-56
2023/11/19 11:34:38;;;;;;;;;;;;;;;11.61;100.00;99776.97;5008492;28;19978;-54
2023/11/19 11:37:12;;;;;;;;;;;;;;;12.17;100.00;99773.56;5046737;28;19964;-52
2023/11/19 11:39:40;;;;;;;;;;;;;;;13.49;100.00;99776.03;5040094;28;19987;-55
2023/11/19 11:42:31;;;;;;;;;;;;;;;14.28;96.62;99763.84;5042039;28;20525;-53
2023/11/19 11:45:08;;;;;;;;;;;;;;;16.08;87.04;99783.63;5026790;28;20406;-54
2023/11/19 11:47:44;;;;;;;;;;;;;;;16.08;84.32;99778.31;5038426;28;19931;-55
2023/11/19 11:50:12;;;;;;;;;;;;;;;15.91;82.49;99771.94;5059833;22;19964;-64
2023/11/19 11:52:58;;;;;;;;;;;;;;;15.68;84.92;99767.97;5036283;28;20027;-65
2023/11/19 11:55:26;;;;;;;;;;;;;;;15.58;84.85;99775.94;5036897;28;19925;-65
2023/11/19 11:57:53;;;;;;;;;;;;;;;14.19;91.70;99773.44;5035190;28;20027;-65
2023/11/19 12:00:26;;;;;;;;;;;;;;;14.07;93.17;99768.38;5017502;28;19935;-64
2023/11/19 12:02:57;;;;;;;;;;;;;;;13.30;99.16;99771.44;5035190;28;19925;-63
2023/11/19 12:05:23;;;;;;;;;;;;;;;12.99;100.00;99768.66;5018224;28;19968;-62
2023/11/19 12:07:58;;;;;;;;;;;;;;;12.27;100.00;99771.88;5037260;28;20040;-65
2023/11/19 12:10:25;;;;;;;;;;;;;;;11.90;100.00;99763.38;5019747;28;19925;-61
2023/11/19 12:12:58;;;;;;;;;;;;;;;11.87;100.00;99774.16;5036051;28;20217;-63
2023/11/19 12:15:26;;;;;;;;;;;;;;;11.77;100.00;99773.19;5016770;28;20020;-65
2023/11/19 12:17:54;;;;;;;;;;;;;;;11.68;100.00;99769.44;5037065;28;20314;-61
2023/11/19 12:20:25;;;;;;;;;;;;;;;11.44;100.00;99772.19;5021695;28;20505;-62
2023/11/19 12:22:55;;;;;;;;;;;;;;;11.37;100.00;99779.69;5019047;28;20445;-62
2023/11/19 12:25:22;;;;;;;;;;;;;;;11.40;100.00;99761.03;5034423;28;19984;-63
2023/11/19 12:27:50;;;;;;;;;;;;;;;11.46;100.00;99774.69;5037611;28;19924;-64
2023/11/19 12:30:22;;;;;;;;;;;;;;;11.48;100.00;99770.97;5004378;28;20345;-61
2023/11/19 12:32:49;;;;;;;;;;;;;;;11.43;100.00;99775.75;5035933;28;19932;-62
2023/11/19 12:35:16;;;;;;;;;;;;;;;11.31;100.00;99764.34;5035468;28;20387;-62
2023/11/19 12:37:44;;;;;;;;;;;;;;;11.31;100.00;99761.72;5034510;28;20012;-61
2023/11/19 12:40:12;;;;;;;;;;;;;;;11.26;100.00;99766.50;5035816;28;20458;-61
2023/11/19 12:42:41;;;;;;;;;;;;;;;11.13;100.00;99761.31;5036102;28;20341;-64
2023/11/19 12:45:10;;;;;;;;;;;;;;;11.18;100.00;99763.59;5041068;28;19938;-64
2023/11/19 12:47:40;;;;;;;;;;;;;;;11.14;100.00;99762.16;5037784;28;21464;-64